sensor_id;sensor_type;location;lat;lon;timestamp;pressure;altitude;pressure_sealevel;temperature;humidity
47706;BME280;33471;52.104;1.318;2023-02-02T00:01:13;102049.29;;;6.91;54.92
47706;BME280;33471;52.104;1.318;2023-02-02T00:03:40;102050.38;;;7.65;53.06
47706;BME280;33471;52.104;1.318;2023-02-02T00:06:07;102045.44;;;7.35;53.07
47706;BME280;33471;52.104;1.318;2023-02-02T00:08:34;102048.39;;;7.97;52.00
47706;BME280;33471;52.104;1.318;2023-02-02T00:11:01;102049.32;;;8.01;52.31
47706;BME280;33471;52.104;1.318;2023-02-02T00:13:28;102046.12;;;7.65;52.67
47706;BME280;33471;52.104;1.318;2023-02-02T00:15:55;102045.02;;;8.50;50.03
47706;BME280;33471;52.104;1.318;2023-02-02T00:18:23;102046.90;;;7.95;52.12
47706;BME280;33471;52.104;1.318;2023-02-02T00:20:50;102048.97;;;8.09;51.59
47706;BME280;33471;52.104;1.318;2023-02-02T00:23:17;102047.73;;;8.09;50.55
47706;BME280;33471;52.104;1.318;2023-02-02T00:25:49;102051.42;;;6.91;53.81
47706;BME280;33471;52.104;1.318;2023-02-02T00:28:16;102055.05;;;6.95;54.94
47706;BME280;33471;52.104;1.318;2023-02-02T00:30:43;102050.68;;;7.14;53.73
47706;BME280;33471;52.104;1.318;2023-02-02T00:33:10;102050.47;;;7.77;52.60
47706;BME280;33471;52.104;1.318;2023-02-02T00:35:40;102048.35;;;7.60;52.74
47706;BME280;33471;52.104;1.318;2023-02-02T00:38:08;102046.17;;;7.22;54.79
47706;BME280;33471;52.104;1.318;2023-02-02T00:40:35;102044.91;;;7.32;53.45
47706;BME280;33471;52.104;1.318;2023-02-02T00:43:02;102043.12;;;7.44;52.62
47706;BME280;33471;52.104;1.318;2023-02-02T00:45:29;102042.56;;;7.57;53.49
47706;BME280;33471;52.104;1.318;2023-02-02T00:47:57;102044.13;;;7.86;52.27
47706;BME280;33471;52.104;1.318;2023-02-02T00:50:24;102049.50;;;7.26;53.61
47706;BME280;33471;52.104;1.318;2023-02-02T00:52:51;102041.76;;;7.27;53.35
47706;BME280;33471;52.104;1.318;2023-02-02T00:55:18;102046.89;;;7.98;51.98
47706;BME280;33471;52.104;1.318;2023-02-02T00:57:46;102040.12;;;8.73;50.83
47706;BME280;33471;52.104;1.318;2023-02-02T01:00:16;102046.56;;;7.22;53.75
47706;BME280;33471;52.104;1.318;2023-02-02T01:02:44;102040.39;;;7.85;52.41
47706;BME280;33471;52.104;1.318;2023-02-02T01:05:12;102041.16;;;7.20;53.78
47706;BME280;33471;52.104;1.318;2023-02-02T01:07:39;102041.54;;;6.93;55.38
47706;BME280;33471;52.104;1.318;2023-02-02T01:10:10;102044.43;;;7.17;54.94
47706;BME280;33471;52.104;1.318;2023-02-02T01:12:38;102044.04;;;7.58;53.21
47706;BME280;33471;52.104;1.318;2023-02-02T01:15:07;102039.23;;;7.34;53.65
47706;BME280;33471;52.104;1.318;2023-02-02T01:17:35;102038.69;;;7.70;53.05
47706;BME280;33471;52.104;1.318;2023-02-02T01:20:04;102039.84;;;8.16;51.77
47706;BME280;33471;52.104;1.318;2023-02-02T01:22:31;102032.57;;;6.95;54.45
47706;BME280;33471;52.104;1.318;2023-02-02T01:24:59;102028.18;;;7.57;54.31
47706;BME280;33471;52.104;1.318;2023-02-02T01:27:27;102022.75;;;6.56;56.43
47706;BME280;33471;52.104;1.318;2023-02-02T01:29:54;102023.49;;;7.31;53.82
47706;BME280;33471;52.104;1.318;2023-02-02T01:32:21;102017.14;;;7.85;52.57
47706;BME280;33471;52.104;1.318;2023-02-02T01:34:48;102021.01;;;7.98;52.37
47706;BME280;33471;52.104;1.318;2023-02-02T01:37:16;102018.61;;;7.97;52.53
47706;BME280;33471;52.104;1.318;2023-02-02T01:39:43;102025.12;;;7.91;52.10
47706;BME280;33471;52.104;1.318;2023-02-02T01:42:12;102027.53;;;7.65;53.39
47706;BME280;33471;52.104;1.318;2023-02-02T01:45:24;102033.17;;;8.57;52.19
47706;BME280;33471;52.104;1.318;2023-02-02T01:47:53;102030.28;;;7.85;52.71
47706;BME280;33471;52.104;1.318;2023-02-02T01:50:24;102030.54;;;6.73;55.02
47706;BME280;33471;52.104;1.318;2023-02-02T01:52:54;102034.90;;;6.95;54.26
47706;BME280;33471;52.104;1.318;2023-02-02T01:55:26;102047.16;;;7.12;54.45
47706;BME280;33471;52.104;1.318;2023-02-02T01:57:56;102035.70;;;7.40;54.52
47706;BME280;33471;52.104;1.318;2023-02-02T02:00:25;102033.75;;;7.05;54.05
47706;BME280;33471;52.104;1.318;2023-02-02T02:02:56;102045.01;;;6.98;54.57
47706;BME280;33471;52.104;1.318;2023-02-02T02:05:28;102040.28;;;7.49;54.01
47706;BME280;33471;52.104;1.318;2023-02-02T02:08:02;102041.42;;;6.63;55.09
47706;BME280;33471;52.104;1.318;2023-02-02T02:10:32;102042.96;;;6.86;55.13
47706;BME280;33471;52.104;1.318;2023-02-02T02:13:00;102044.74;;;6.47;56.48
47706;BME280;33471;52.104;1.318;2023-02-02T02:15:29;102035.23;;;7.07;55.19
47706;BME280;33471;52.104;1.318;2023-02-02T02:18:07;102030.72;;;7.12;55.10
47706;BME280;33471;52.104;1.318;2023-02-02T02:20:57;102034.41;;;7.84;52.88
47706;BME280;33471;52.104;1.318;2023-02-02T02:25:24;102033.07;;;7.80;55.17
47706;BME280;33471;52.104;1.318;2023-02-02T02:28:19;102035.02;;;6.98;55.21
47706;BME280;33471;52.104;1.318;2023-02-02T02:32:00;102046.07;;;7.84;54.48
47706;BME280;33471;52.104;1.318;2023-02-02T02:34:47;102046.10;;;7.07;54.14
47706;BME280;33471;52.104;1.318;2023-02-02T02:37:26;102056.64;;;7.09;54.19
47706;BME280;33471;52.104;1.318;2023-02-02T02:40:00;102053.72;;;6.33;56.85
47706;BME280;33471;52.104;1.318;2023-02-02T02:42:34;102050.09;;;6.94;55.45
47706;BME280;33471;52.104;1.318;2023-02-02T02:45:03;102044.06;;;6.68;54.85
47706;BME280;33471;52.104;1.318;2023-02-02T02:47:31;102055.39;;;6.21;57.30
47706;BME280;33471;52.104;1.318;2023-02-02T02:49:59;102054.26;;;7.01;55.63
47706;BME280;33471;52.104;1.318;2023-02-02T02:52:26;102066.11;;;7.04;55.21
47706;BME280;33471;52.104;1.318;2023-02-02T02:54:55;102068.17;;;6.18;57.14
47706;BME280;33471;52.104;1.318;2023-02-02T02:57:36;102075.57;;;6.13;57.73
47706;BME280;33471;52.104;1.318;2023-02-02T03:00:17;102058.59;;;6.17;57.49
47706;BME280;33471;52.104;1.318;2023-02-02T03:02:52;102049.71;;;6.68;56.04
47706;BME280;33471;52.104;1.318;2023-02-02T03:05:31;102053.29;;;6.61;55.80
47706;BME280;33471;52.104;1.318;2023-02-02T03:08:06;102049.67;;;6.95;55.95
47706;BME280;33471;52.104;1.318;2023-02-02T03:10:37;102057.66;;;6.67;56.17
47706;BME280;33471;52.104;1.318;2023-02-02T03:13:08;102049.72;;;7.50;53.82
47706;BME280;33471;52.104;1.318;2023-02-02T03:15:39;102056.24;;;7.32;53.77
47706;BME280;33471;52.104;1.318;2023-02-02T03:18:06;102062.16;;;7.02;54.27
47706;BME280;33471;52.104;1.318;2023-02-02T03:20:34;102059.02;;;6.79;55.68
47706;BME280;33471;52.104;1.318;2023-02-02T03:23:02;102060.09;;;6.69;55.56
47706;BME280;33471;52.104;1.318;2023-02-02T03:25:29;102061.75;;;6.75;55.48
47706;BME280;33471;52.104;1.318;2023-02-02T03:27:57;102057.57;;;7.15;53.64
47706;BME280;33471;52.104;1.318;2023-02-02T03:30:24;102061.65;;;6.60;56.20
47706;BME280;33471;52.104;1.318;2023-02-02T03:32:52;102062.39;;;5.88;57.35
47706;BME280;33471;52.104;1.318;2023-02-02T03:35:20;102050.03;;;6.97;54.37
47706;BME280;33471;52.104;1.318;2023-02-02T03:37:47;102048.85;;;7.08;54.03
47706;BME280;33471;52.104;1.318;2023-02-02T03:40:14;102054.41;;;6.39;55.95
47706;BME280;33471;52.104;1.318;2023-02-02T03:42:41;102052.74;;;6.57;54.46
47706;BME280;33471;52.104;1.318;2023-02-02T03:45:10;102054.60;;;7.19;53.71
47706;BME280;33471;52.104;1.318;2023-02-02T03:47:37;102060.18;;;7.01;53.93
47706;BME280;33471;52.104;1.318;2023-02-02T03:50:05;102058.10;;;6.73;54.09
47706;BME280;33471;52.104;1.318;2023-02-02T03:52:32;102066.49;;;6.72;53.76
47706;BME280;33471;52.104;1.318;2023-02-02T03:54:59;102073.25;;;7.07;53.05
47706;BME280;33471;52.104;1.318;2023-02-02T03:57:27;102079.28;;;6.59;54.82
47706;BME280;33471;52.104;1.318;2023-02-02T03:59:54;102064.43;;;7.71;53.04
47706;BME280;33471;52.104;1.318;2023-02-02T04:02:21;102066.03;;;7.73;52.76
47706;BME280;33471;52.104;1.318;2023-02-02T04:04:49;102060.39;;;6.98;53.46
47706;BME280;33471;52.104;1.318;2023-02-02T04:07:17;102059.49;;;7.91;50.88
47706;BME280;33471;52.104;1.318;2023-02-02T04:09:44;102059.05;;;6.97;53.26
47706;BME280;33471;52.104;1.318;2023-02-02T04:12:11;102060.05;;;7.17;52.70
47706;BME280;33471;52.104;1.318;2023-02-02T04:14:38;102064.82;;;7.70;51.79
47706;BME280;33471;52.104;1.318;2023-02-02T04:17:05;102073.03;;;5.49;57.64
47706;BME280;33471;52.104;1.318;2023-02-02T04:19:32;102075.18;;;6.09;57.63
47706;BME280;33471;52.104;1.318;2023-02-02T04:22:00;102072.48;;;6.18;55.96
47706;BME280;33471;52.104;1.318;2023-02-02T04:24:28;102065.16;;;6.88;54.57
47706;BME280;33471;52.104;1.318;2023-02-02T04:26:55;102068.01;;;6.60;55.29
47706;BME280;33471;52.104;1.318;2023-02-02T04:29:22;102071.10;;;5.56;57.68
47706;BME280;33471;52.104;1.318;2023-02-02T04:31:49;102077.75;;;5.67;57.50
47706;BME280;33471;52.104;1.318;2023-02-02T04:34:17;102076.71;;;5.92;57.01
47706;BME280;33471;52.104;1.318;2023-02-02T04:36:44;102074.86;;;6.66;54.90
47706;BME280;33471;52.104;1.318;2023-02-02T04:39:11;102073.23;;;6.92;53.75
47706;BME280;33471;52.104;1.318;2023-02-02T04:41:40;102078.39;;;6.15;56.83
47706;BME280;33471;52.104;1.318;2023-02-02T04:44:12;102080.67;;;5.98;56.98
47706;BME280;33471;52.104;1.318;2023-02-02T04:46:40;102076.54;;;6.23;56.33
47706;BME280;33471;52.104;1.318;2023-02-02T04:49:08;102077.04;;;6.35;55.90
47706;BME280;33471;52.104;1.318;2023-02-02T04:51:37;102077.35;;;5.69;58.59
47706;BME280;33471;52.104;1.318;2023-02-02T04:54:05;102085.11;;;6.39;56.49
47706;BME280;33471;52.104;1.318;2023-02-02T04:56:33;102074.61;;;6.37;55.98
47706;BME280;33471;52.104;1.318;2023-02-02T04:59:01;102069.11;;;6.35;55.47
47706;BME280;33471;52.104;1.318;2023-02-02T05:01:28;102074.44;;;5.75;57.47
47706;BME280;33471;52.104;1.318;2023-02-02T05:03:55;102072.97;;;6.62;55.81
47706;BME280;33471;52.104;1.318;2023-02-02T05:06:22;102075.29;;;6.35;55.87
47706;BME280;33471;52.104;1.318;2023-02-02T05:08:49;102062.39;;;6.98;54.08
47706;BME280;33471;52.104;1.318;2023-02-02T05:11:19;102065.03;;;6.89;53.57
47706;BME280;33471;52.104;1.318;2023-02-02T05:13:48;102072.43;;;7.00;53.02
47706;BME280;33471;52.104;1.318;2023-02-02T05:16:16;102084.24;;;6.35;55.59
47706;BME280;33471;52.104;1.318;2023-02-02T05:18:48;102078.08;;;6.68;54.74
47706;BME280;33471;52.104;1.318;2023-02-02T05:21:15;102084.09;;;5.74;57.65
47706;BME280;33471;52.104;1.318;2023-02-02T05:23:43;102078.25;;;6.48;54.70
47706;BME280;33471;52.104;1.318;2023-02-02T05:26:12;102080.51;;;6.17;55.89
47706;BME280;33471;52.104;1.318;2023-02-02T05:28:40;102080.76;;;5.72;57.60
47706;BME280;33471;52.104;1.318;2023-02-02T05:31:08;102078.68;;;6.42;55.67
47706;BME280;33471;52.104;1.318;2023-02-02T05:33:35;102076.74;;;6.31;56.14
47706;BME280;33471;52.104;1.318;2023-02-02T05:36:04;102068.07;;;6.00;56.46
47706;BME280;33471;52.104;1.318;2023-02-02T05:38:32;102070.81;;;5.17;59.84
47706;BME280;33471;52.104;1.318;2023-02-02T05:41:00;102075.78;;;5.98;57.14
47706;BME280;33471;52.104;1.318;2023-02-02T05:43:29;102075.76;;;5.50;58.15
47706;BME280;33471;52.104;1.318;2023-02-02T05:45:57;102080.08;;;5.66;58.36
47706;BME280;33471;52.104;1.318;2023-02-02T05:48:25;102080.27;;;5.23;59.44
47706;BME280;33471;52.104;1.318;2023-02-02T05:50:59;102083.64;;;5.93;58.20
47706;BME280;33471;52.104;1.318;2023-02-02T05:53:29;102079.90;;;5.96;58.10
47706;BME280;33471;52.104;1.318;2023-02-02T05:55:56;102082.04;;;5.67;57.90
47706;BME280;33471;52.104;1.318;2023-02-02T05:58:23;102088.64;;;5.23;58.66
47706;BME280;33471;52.104;1.318;2023-02-02T06:00:51;102094.70;;;6.50;55.64
47706;BME280;33471;52.104;1.318;2023-02-02T06:03:19;102096.83;;;5.36;58.37
47706;BME280;33471;52.104;1.318;2023-02-02T06:05:46;102091.44;;;5.89;56.40
47706;BME280;33471;52.104;1.318;2023-02-02T06:08:14;102097.71;;;6.07;55.87
47706;BME280;33471;52.104;1.318;2023-02-02T06:10:41;102089.74;;;5.99;56.32
47706;BME280;33471;52.104;1.318;2023-02-02T06:13:09;102091.76;;;6.42;54.96
47706;BME280;33471;52.104;1.318;2023-02-02T06:15:36;102096.82;;;6.27;54.88
47706;BME280;33471;52.104;1.318;2023-02-02T06:18:03;102089.97;;;6.73;54.87
47706;BME280;33471;52.104;1.318;2023-02-02T06:20:31;102099.15;;;6.19;56.02
47706;BME280;33471;52.104;1.318;2023-02-02T06:22:58;102107.68;;;5.89;57.09
47706;BME280;33471;52.104;1.318;2023-02-02T06:25:25;102109.55;;;6.07;56.35
47706;BME280;33471;52.104;1.318;2023-02-02T06:27:54;102110.62;;;5.94;56.41
47706;BME280;33471;52.104;1.318;2023-02-02T06:30:22;102108.28;;;5.32;57.92
47706;BME280;33471;52.104;1.318;2023-02-02T06:32:50;102104.38;;;6.45;54.67
47706;BME280;33471;52.104;1.318;2023-02-02T06:35:16;102105.86;;;5.40;58.68
47706;BME280;33471;52.104;1.318;2023-02-02T06:37:44;102114.32;;;5.67;57.90
47706;BME280;33471;52.104;1.318;2023-02-02T06:40:12;102116.05;;;5.47;58.18
47706;BME280;33471;52.104;1.318;2023-02-02T06:42:39;102112.84;;;5.78;57.69
47706;BME280;33471;52.104;1.318;2023-02-02T06:45:07;102114.77;;;5.13;58.76
47706;BME280;33471;52.104;1.318;2023-02-02T06:47:34;102114.69;;;5.29;59.73
47706;BME280;33471;52.104;1.318;2023-02-02T06:50:02;102115.71;;;5.55;58.35
47706;BME280;33471;52.104;1.318;2023-02-02T06:52:30;102118.00;;;4.90;59.35
47706;BME280;33471;52.104;1.318;2023-02-02T06:54:58;102114.35;;;5.00;59.27
47706;BME280;33471;52.104;1.318;2023-02-02T06:57:25;102110.74;;;5.56;57.97
47706;BME280;33471;52.104;1.318;2023-02-02T06:59:52;102115.87;;;5.06;59.20
47706;BME280;33471;52.104;1.318;2023-02-02T07:02:19;102119.89;;;5.91;56.34
47706;BME280;33471;52.104;1.318;2023-02-02T07:04:46;102123.54;;;5.84;57.22
47706;BME280;33471;52.104;1.318;2023-02-02T07:07:13;102124.58;;;5.71;56.86
47706;BME280;33471;52.104;1.318;2023-02-02T07:09:40;102136.26;;;5.94;56.21
47706;BME280;33471;52.104;1.318;2023-02-02T07:12:07;102135.96;;;5.76;57.65
47706;BME280;33471;52.104;1.318;2023-02-02T07:14:35;102136.14;;;5.00;59.11
47706;BME280;33471;52.104;1.318;2023-02-02T07:17:02;102133.58;;;6.14;56.80
47706;BME280;33471;52.104;1.318;2023-02-02T07:19:29;102136.89;;;5.03;59.30
47706;BME280;33471;52.104;1.318;2023-02-02T07:21:57;102135.06;;;5.59;57.25
47706;BME280;33471;52.104;1.318;2023-02-02T07:24:23;102144.96;;;6.34;55.20
47706;BME280;33471;52.104;1.318;2023-02-02T07:26:51;102150.87;;;6.41;54.73
47706;BME280;33471;52.104;1.318;2023-02-02T07:29:18;102148.78;;;5.84;56.93
47706;BME280;33471;52.104;1.318;2023-02-02T07:31:45;102151.94;;;5.40;57.79
47706;BME280;33471;52.104;1.318;2023-02-02T07:34:12;102161.26;;;6.15;55.52
47706;BME280;33471;52.104;1.318;2023-02-02T07:36:40;102164.62;;;6.01;56.13
47706;BME280;33471;52.104;1.318;2023-02-02T07:39:07;102166.83;;;5.75;56.74
47706;BME280;33471;52.104;1.318;2023-02-02T07:41:35;102160.24;;;5.68;57.78
47706;BME280;33471;52.104;1.318;2023-02-02T07:44:03;102162.78;;;5.59;57.87
47706;BME280;33471;52.104;1.318;2023-02-02T07:46:30;102165.49;;;6.05;56.62
47706;BME280;33471;52.104;1.318;2023-02-02T07:48:58;102173.20;;;5.28;57.79
47706;BME280;33471;52.104;1.318;2023-02-02T07:51:25;102177.38;;;6.47;56.29
47706;BME280;33471;52.104;1.318;2023-02-02T07:53:53;102173.90;;;6.86;54.30
47706;BME280;33471;52.104;1.318;2023-02-02T07:56:23;102170.31;;;6.92;53.86
47706;BME280;33471;52.104;1.318;2023-02-02T07:58:52;102164.90;;;6.13;55.54
47706;BME280;33471;52.104;1.318;2023-02-02T08:01:20;102162.20;;;7.11;52.91
47706;BME280;33471;52.104;1.318;2023-02-02T08:03:53;102154.54;;;7.05;53.54
47706;BME280;33471;52.104;1.318;2023-02-02T08:06:24;102152.20;;;6.93;53.08
47706;BME280;33471;52.104;1.318;2023-02-02T08:08:51;102140.62;;;7.34;52.16
47706;BME280;33471;52.104;1.318;2023-02-02T08:11:21;102151.32;;;6.57;53.91
47706;BME280;33471;52.104;1.318;2023-02-02T08:13:50;102144.34;;;6.58;52.94
47706;BME280;33471;52.104;1.318;2023-02-02T08:16:18;102145.18;;;6.42;54.58
47706;BME280;33471;52.104;1.318;2023-02-02T08:18:46;102151.11;;;6.34;54.35
47706;BME280;33471;52.104;1.318;2023-02-02T08:21:14;102149.42;;;6.37;54.60
47706;BME280;33471;52.104;1.318;2023-02-02T08:23:42;102153.61;;;6.31;54.90
47706;BME280;33471;52.104;1.318;2023-02-02T08:26:12;102152.35;;;6.75;53.37
47706;BME280;33471;52.104;1.318;2023-02-02T08:28:41;102151.62;;;7.34;51.67
47706;BME280;33471;52.104;1.318;2023-02-02T08:31:10;102150.36;;;8.00;51.45
47706;BME280;33471;52.104;1.318;2023-02-02T08:33:38;102156.10;;;7.33;52.52
47706;BME280;33471;52.104;1.318;2023-02-02T08:36:10;102147.31;;;7.23;52.78
47706;BME280;33471;52.104;1.318;2023-02-02T08:38:37;102154.40;;;6.82;53.35
47706;BME280;33471;52.104;1.318;2023-02-02T08:41:07;102148.97;;;7.24;52.94
47706;BME280;33471;52.104;1.318;2023-02-02T08:43:34;102149.41;;;7.17;52.85
47706;BME280;33471;52.104;1.318;2023-02-02T08:46:02;102154.81;;;5.96;55.68
47706;BME280;33471;52.104;1.318;2023-02-02T08:48:30;102159.34;;;6.20;55.35
47706;BME280;33471;52.104;1.318;2023-02-02T08:50:58;102164.67;;;6.12;55.39
47706;BME280;33471;52.104;1.318;2023-02-02T08:53:26;102162.70;;;6.36;54.95
47706;BME280;33471;52.104;1.318;2023-02-02T08:55:57;102160.07;;;7.20;53.61
47706;BME280;33471;52.104;1.318;2023-02-02T08:58:25;102165.60;;;6.56;55.76
47706;BME280;33471;52.104;1.318;2023-02-02T09:00:52;102167.10;;;6.48;56.98
47706;BME280;33471;52.104;1.318;2023-02-02T09:03:19;102165.14;;;5.65;58.55
47706;BME280;33471;52.104;1.318;2023-02-02T09:05:46;102169.10;;;6.26;57.09
47706;BME280;33471;52.104;1.318;2023-02-02T09:08:14;102168.15;;;5.92;57.29
47706;BME280;33471;52.104;1.318;2023-02-02T09:10:41;102168.19;;;6.63;56.26
47706;BME280;33471;52.104;1.318;2023-02-02T09:13:08;102173.00;;;5.87;58.85
47706;BME280;33471;52.104;1.318;2023-02-02T09:15:35;102176.91;;;6.29;57.12
47706;BME280;33471;52.104;1.318;2023-02-02T09:18:03;102175.60;;;6.45;56.33
47706;BME280;33471;52.104;1.318;2023-02-02T09:20:30;102179.23;;;6.18;57.60
47706;BME280;33471;52.104;1.318;2023-02-02T09:22:57;102182.29;;;6.59;58.05
47706;BME280;33471;52.104;1.318;2023-02-02T09:25:25;102185.40;;;6.19;58.55
47706;BME280;33471;52.104;1.318;2023-02-02T09:27:52;102172.89;;;6.55;57.45
47706;BME280;33471;52.104;1.318;2023-02-02T09:30:19;102169.72;;;6.14;58.93
47706;BME280;33471;52.104;1.318;2023-02-02T09:32:48;102172.30;;;6.25;59.12
47706;BME280;33471;52.104;1.318;2023-02-02T09:35:15;102175.46;;;6.83;57.36
47706;BME280;33471;52.104;1.318;2023-02-02T09:37:43;102179.55;;;6.36;57.40
47706;BME280;33471;52.104;1.318;2023-02-02T09:40:14;102181.41;;;6.20;59.07
47706;BME280;33471;52.104;1.318;2023-02-02T09:42:52;102177.59;;;6.27;59.14
47706;BME280;33471;52.104;1.318;2023-02-02T09:45:27;102176.71;;;6.67;57.88
47706;BME280;33471;52.104;1.318;2023-02-02T09:48:04;102185.02;;;6.22;58.97
47706;BME280;33471;52.104;1.318;2023-02-02T09:50:41;102179.89;;;6.93;56.66
47706;BME280;33471;52.104;1.318;2023-02-02T09:53:15;102177.87;;;7.27;56.06
47706;BME280;33471;52.104;1.318;2023-02-02T09:55:49;102172.33;;;7.29;56.14
47706;BME280;33471;52.104;1.318;2023-02-02T09:58:19;102180.46;;;7.15;56.72
47706;BME280;33471;52.104;1.318;2023-02-02T10:00:55;102175.75;;;7.50;57.19
47706;BME280;33471;52.104;1.318;2023-02-02T10:03:31;102175.38;;;7.59;56.56
47706;BME280;33471;52.104;1.318;2023-02-02T10:06:04;102182.40;;;6.58;58.31
47706;BME280;33471;52.104;1.318;2023-02-02T10:08:41;102186.19;;;6.85;58.70
47706;BME280;33471;52.104;1.318;2023-02-02T10:11:26;102189.87;;;6.76;59.03
47706;BME280;33471;52.104;1.318;2023-02-02T10:13:57;102184.95;;;8.05;55.48
47706;BME280;33471;52.104;1.318;2023-02-02T10:16:27;102189.06;;;8.60;54.51
47706;BME280;33471;52.104;1.318;2023-02-02T10:19:00;102191.75;;;8.50;54.80
47706;BME280;33471;52.104;1.318;2023-02-02T10:21:34;102198.45;;;7.60;56.98
47706;BME280;33471;52.104;1.318;2023-02-02T10:24:06;102197.78;;;7.68;57.04
47706;BME280;33471;52.104;1.318;2023-02-02T10:26:37;102202.42;;;7.43;57.42
47706;BME280;33471;52.104;1.318;2023-02-02T10:29:11;102204.57;;;7.47;57.35
47706;BME280;33471;52.104;1.318;2023-02-02T10:31:46;102204.25;;;7.93;56.36
47706;BME280;33471;52.104;1.318;2023-02-02T10:34:19;102204.43;;;8.18;55.81
47706;BME280;33471;52.104;1.318;2023-02-02T10:37:06;102214.29;;;8.27;55.27
47706;BME280;33471;52.104;1.318;2023-02-02T10:39:49;102211.77;;;8.40;55.69
47706;BME280;33471;52.104;1.318;2023-02-02T10:42:31;102207.34;;;8.00;56.61
47706;BME280;33471;52.104;1.318;2023-02-02T10:45:07;102202.30;;;8.60;55.17
47706;BME280;33471;52.104;1.318;2023-02-02T10:47:37;102203.21;;;8.95;53.83
47706;BME280;33471;52.104;1.318;2023-02-02T10:50:17;102205.40;;;9.29;52.19
47706;BME280;33471;52.104;1.318;2023-02-02T10:52:47;102209.39;;;8.71;54.46
47706;BME280;33471;52.104;1.318;2023-02-02T10:55:24;102211.36;;;8.16;56.02
47706;BME280;33471;52.104;1.318;2023-02-02T10:58:03;102210.02;;;7.73;57.10
47706;BME280;33471;52.104;1.318;2023-02-02T11:00:36;102209.77;;;8.87;54.63
47706;BME280;33471;52.104;1.318;2023-02-02T11:03:09;102211.32;;;7.85;57.60
47706;BME280;33471;52.104;1.318;2023-02-02T11:05:37;102203.98;;;8.62;56.33
47706;BME280;33471;52.104;1.318;2023-02-02T11:08:12;102196.33;;;8.84;55.72
47706;BME280;33471;52.104;1.318;2023-02-02T11:10:42;102196.53;;;8.26;56.66
47706;BME280;33471;52.104;1.318;2023-02-02T11:13:16;102191.53;;;9.27;55.06
47706;BME280;33471;52.104;1.318;2023-02-02T11:15:46;102197.39;;;8.49;57.31
47706;BME280;33471;52.104;1.318;2023-02-02T11:18:24;102199.54;;;8.51;57.24
47706;BME280;33471;52.104;1.318;2023-02-02T11:20:53;102205.69;;;8.92;56.16
47706;BME280;33471;52.104;1.318;2023-02-02T11:23:21;102200.03;;;8.99;56.03
47706;BME280;33471;52.104;1.318;2023-02-02T11:26:00;102201.10;;;8.85;55.67
47706;BME280;33471;52.104;1.318;2023-02-02T11:28:31;102196.73;;;8.25;57.31
47706;BME280;33471;52.104;1.318;2023-02-02T11:31:01;102197.19;;;8.74;56.73
47706;BME280;33471;52.104;1.318;2023-02-02T11:33:31;102196.03;;;8.60;56.94
47706;BME280;33471;52.104;1.318;2023-02-02T11:36:01;102192.52;;;9.21;55.66
47706;BME280;33471;52.104;1.318;2023-02-02T11:38:30;102204.68;;;8.76;56.98
47706;BME280;33471;52.104;1.318;2023-02-02T11:41:00;102200.45;;;9.52;55.69
47706;BME280;33471;52.104;1.318;2023-02-02T11:43:29;102198.42;;;8.84;56.22
47706;BME280;33471;52.104;1.318;2023-02-02T11:46:00;102199.05;;;9.02;57.08
47706;BME280;33471;52.104;1.318;2023-02-02T11:48:31;102204.79;;;8.77;57.04
47706;BME280;33471;52.104;1.318;2023-02-02T11:51:00;102201.26;;;8.76;57.04
47706;BME280;33471;52.104;1.318;2023-02-02T11:53:31;102194.92;;;9.43;55.10
47706;BME280;33471;52.104;1.318;2023-02-02T11:56:03;102194.38;;;9.70;55.47
47706;BME280;33471;52.104;1.318;2023-02-02T11:58:42;102192.88;;;9.29;55.91
47706;BME280;33471;52.104;1.318;2023-02-02T12:01:23;102193.72;;;9.11;55.97
47706;BME280;33471;52.104;1.318;2023-02-02T12:03:53;102194.22;;;8.37;58.80
47706;BME280;33471;52.104;1.318;2023-02-02T12:06:23;102191.61;;;9.05;56.68
47706;BME280;33471;52.104;1.318;2023-02-02T12:08:53;102179.40;;;8.57;57.64
47706;BME280;33471;52.104;1.318;2023-02-02T12:11:37;102171.45;;;9.02;57.67
47706;BME280;33471;52.104;1.318;2023-02-02T12:14:22;102167.28;;;9.78;55.46
47706;BME280;33471;52.104;1.318;2023-02-02T12:17:00;102160.34;;;9.43;54.83
47706;BME280;33471;52.104;1.318;2023-02-02T12:20:21;102167.36;;;10.46;54.29
47706;BME280;33471;52.104;1.318;2023-02-02T12:23:01;102170.34;;;9.29;55.12
47706;BME280;33471;52.104;1.318;2023-02-02T12:25:57;102178.49;;;10.59;51.85
47706;BME280;33471;52.104;1.318;2023-02-02T12:28:41;102175.25;;;10.41;52.41
47706;BME280;33471;52.104;1.318;2023-02-02T12:31:20;102166.41;;;9.88;53.27
47706;BME280;33471;52.104;1.318;2023-02-02T12:33:56;102162.86;;;9.95;53.33
47706;BME280;33471;52.104;1.318;2023-02-02T12:36:38;102161.82;;;9.45;53.92
47706;BME280;33471;52.104;1.318;2023-02-02T12:39:20;102159.26;;;9.80;53.41
47706;BME280;33471;52.104;1.318;2023-02-02T12:42:02;102159.83;;;9.92;53.35
47706;BME280;33471;52.104;1.318;2023-02-02T12:44:40;102159.13;;;10.63;51.80
47706;BME280;33471;52.104;1.318;2023-02-02T12:47:17;102159.97;;;10.09;52.31
47706;BME280;33471;52.104;1.318;2023-02-02T12:49:59;102155.68;;;10.14;52.59
47706;BME280;33471;52.104;1.318;2023-02-02T12:52:41;102154.64;;;10.96;51.38
47706;BME280;33471;52.104;1.318;2023-02-02T12:55:21;102148.11;;;11.14;51.05
47706;BME280;33471;52.104;1.318;2023-02-02T12:57:58;102142.82;;;11.20;51.53
47706;BME280;33471;52.104;1.318;2023-02-02T13:00:41;102142.58;;;11.17;50.74
47706;BME280;33471;52.104;1.318;2023-02-02T13:03:23;102140.14;;;10.68;51.27
47706;BME280;33471;52.104;1.318;2023-02-02T13:06:02;102140.65;;;11.16;50.77
47706;BME280;33471;52.104;1.318;2023-02-02T13:08:37;102141.31;;;10.40;52.66
47706;BME280;33471;52.104;1.318;2023-02-02T13:11:10;102139.87;;;9.66;55.30
47706;BME280;33471;52.104;1.318;2023-02-02T13:13:39;102151.19;;;10.03;54.07
47706;BME280;33471;52.104;1.318;2023-02-02T13:16:10;102135.00;;;9.67;55.25
47706;BME280;33471;52.104;1.318;2023-02-02T13:18:51;102136.92;;;9.65;54.74
47706;BME280;33471;52.104;1.318;2023-02-02T13:21:22;102144.29;;;9.89;53.72